Time;durP1;ratioP1;P1;durP2;ratioP2;P2;SDS_P1;SDS_P2;PMS_P1;PMS_P2;Temp;Humidity;BMP_temperature;BMP_pressure;BME280_temperature;BME280_humidity;BME280_pressure;Samples;Min_cycle;Max_cycle;Signal;HPM_P1;HPM_P2
2023/03/01 05:50:52;;;;;;;49.83;25.90;;;;;;;;;;5069926;28;20441;-67
2023/03/01 05:53:23;;;;;;;50.22;26.08;;;;;;;;;;5067934;28;20020;-64
2023/03/01 05:55:49;;;;;;;52.88;26.92;;;;;;;;;;5067991;28;20032;-61
2023/03/01 05:58:17;;;;;;;50.28;26.60;;;;;;;;;;5068081;28;20105;-61
2023/03/01 06:00:43;;;;;;;49.00;26.92;;;;;;;;;;5067736;28;20032;-64
2023/03/01 06:03:11;;;;;;;49.08;26.90;;;;;;;;;;5067771;28;20068;-59
2023/03/01 06:05:37;;;;;;;55.10;29.50;;;;;;;;;;5067403;28;20124;-59
2023/03/01 06:08:03;;;;;;;59.38;30.83;;;;;;;;;;5067805;28;20068;-61
2023/03/01 06:10:29;;;;;;;56.15;29.77;;;;;;;;;;5067572;28;20594;-60
2023/03/01 06:12:55;;;;;;;52.33;28.98;;;;;;;;;;5066293;28;20036;-60
2023/03/01 06:15:22;;;;;;;51.42;28.38;;;;;;;;;;5067387;28;20035;-60
2023/03/01 06:17:48;;;;;;;52.10;28.40;;;;;;;;;;5067795;28;20063;-67
2023/03/01 06:20:16;;;;;;;51.38;28.35;;;;;;;;;;5067417;28;20032;-60
2023/03/01 06:22:42;;;;;;;51.40;28.23;;;;;;;;;;5067376;28;20033;-70
2023/03/01 06:25:08;;;;;;;51.20;27.35;;;;;;;;;;5066972;28;20050;-70
2023/03/01 06:27:35;;;;;;;54.47;29.60;;;;;;;;;;5067638;28;20017;-60
2023/03/01 06:30:01;;;;;;;54.63;31.60;;;;;;;;;;5066633;28;20032;-63
2023/03/01 06:32:27;;;;;;;56.38;32.88;;;;;;;;;;5065765;28;20028;-71
2023/03/01 06:34:53;;;;;;;56.90;31.88;;;;;;;;;;5065814;28;20052;-71
2023/03/01 06:37:19;;;;;;;60.13;34.70;;;;;;;;;;5065954;28;20043;-73
2023/03/01 06:39:45;;;;;;;60.33;34.65;;;;;;;;;;5066430;28;20047;-74
2023/03/01 06:42:11;;;;;;;56.40;32.72;;;;;;;;;;5052997;28;20025;-60
2023/03/01 06:44:37;;;;;;;54.22;31.30;;;;;;;;;;5046663;28;20021;-62
2023/03/01 06:47:04;;;;;;;53.58;32.10;;;;;;;;;;5047134;28;20021;-60
2023/03/01 06:49:30;;;;;;;55.75;32.30;;;;;;;;;;5046900;28;20150;-62
2023/03/01 06:51:57;;;;;;;58.05;32.38;;;;;;;;;;5046807;28;20029;-76
2023/03/01 06:54:23;;;;;;;54.55;29.27;;;;;;;;;;5046843;28;20029;-60
2023/03/01 06:56:49;;;;;;;50.35;27.75;;;;;;;;;;5046614;28;20040;-67
2023/03/01 06:59:16;;;;;;;54.50;28.95;;;;;;;;;;5046352;28;20029;-60
2023/03/01 07:01:42;;;;;;;49.63;28.58;;;;;;;;;;5036388;28;20084;-66
2023/03/01 07:04:08;;;;;;;53.45;31.17;;;;;;;;;;5033495;28;20489;-59
2023/03/01 07:06:34;;;;;;;54.03;31.40;;;;;;;;;;5033482;28;20487;-67
2023/03/01 07:09:00;;;;;;;53.50;30.98;;;;;;;;;;5033544;28;20506;-59
2023/03/01 07:11:26;;;;;;;44.75;25.98;;;;;;;;;;5033383;28;20465;-71
2023/03/01 07:13:52;;;;;;;49.47;28.50;;;;;;;;;;5032714;28;20499;-59
2023/03/01 07:16:20;;;;;;;47.63;27.33;;;;;;;;;;5032085;28;20066;-77
2023/03/01 07:18:46;;;;;;;43.05;25.23;;;;;;;;;;5032187;28;20156;-60
2023/03/01 07:21:13;;;;;;;41.78;22.25;;;;;;;;;;5031796;28;20017;-60
2023/03/01 07:23:39;;;;;;;40.67;22.75;;;;;;;;;;5032791;28;20041;-60
2023/03/01 07:26:05;;;;;;;39.22;22.83;;;;;;;;;;5032533;28;20026;-59
2023/03/01 07:28:35;;;;;;;38.05;21.42;;;;;;;;;;5032984;28;20116;-59
2023/03/01 07:31:02;;;;;;;55.70;26.35;;;;;;;;;;5064479;28;20381;-61
2023/03/01 07:33:28;;;;;;;38.38;22.25;;;;;;;;;;5033018;28;20026;-60
2023/03/01 07:35:58;;;;;;;38.03;21.80;;;;;;;;;;5032709;28;20034;-60
2023/03/01 07:38:24;;;;;;;37.63;20.60;;;;;;;;;;5029497;28;20046;-61
2023/03/01 07:40:50;;;;;;;37.38;20.50;;;;;;;;;;5015626;28;20037;-67
2023/03/01 07:43:16;;;;;;;44.63;24.58;;;;;;;;;;5012738;28;20030;-66
2023/03/01 07:45:42;;;;;;;31.48;18.15;;;;;;;;;;5012445;28;20026;-62
2023/03/01 07:48:09;;;;;;;30.38;17.45;;;;;;;;;;5018406;28;20064;-59
2023/03/01 07:50:35;;;;;;;29.30;17.92;;;;;;;;;;5030694;28;20401;-60
2023/03/01 07:53:02;;;;;;;27.60;16.27;;;;;;;;;;5031358;28;20041;-59
2023/03/01 07:55:28;;;;;;;26.15;15.93;;;;;;;;;;5031241;28;20021;-60
2023/03/01 07:57:54;;;;;;;32.53;17.17;;;;;;;;;;5031365;28;20044;-61
2023/03/01 08:00:20;;;;;;;34.03;17.85;;;;;;;;;;5031235;28;20018;-63
2023/03/01 08:02:46;;;;;;;26.13;15.55;;;;;;;;;;5030709;28;20370;-59
2023/03/01 08:05:12;;;;;;;29.08;15.55;;;;;;;;;;5031879;28;20102;-60
2023/03/01 08:07:38;;;;;;;25.48;14.50;;;;;;;;;;5031979;28;20041;-60
2023/03/01 08:10:05;;;;;;;26.00;15.20;;;;;;;;;;5031729;28;20037;-60
2023/03/01 08:12:31;;;;;;;25.58;14.27;;;;;;;;;;5030810;28;20515;-60
2023/03/01 08:14:57;;;;;;;25.77;14.63;;;;;;;;;;5031852;28;20532;-60
2023/03/01 08:17:23;;;;;;;21.25;12.40;;;;;;;;;;5032205;28;20029;-59
2023/03/01 08:19:49;;;;;;;23.13;14.00;;;;;;;;;;5031214;28;20041;-59
2023/03/01 08:22:15;;;;;;;18.02;11.52;;;;;;;;;;5031748;28;20026;-59
2023/03/01 08:24:41;;;;;;;19.85;11.43;;;;;;;;;;5031854;28;20168;-58
2023/03/01 08:27:07;;;;;;;18.40;11.93;;;;;;;;;;5031709;28;20026;-68
2023/03/01 08:29:33;;;;;;;19.83;11.95;;;;;;;;;;5031829;28;20428;-59
2023/03/01 08:32:00;;;;;;;20.23;12.32;;;;;;;;;;5031740;28;20033;-70
2023/03/01 08:34:26;;;;;;;20.10;10.85;;;;;;;;;;5031487;28;20039;-62
2023/03/01 08:36:52;;;;;;;16.77;9.40;;;;;;;;;;5031696;28;20057;-60
2023/03/01 08:39:20;;;;;;;10.90;6.78;;;;;;;;;;5030610;28;20100;-62
2023/03/01 08:41:46;;;;;;;9.30;5.72;;;;;;;;;;5031521;28;20408;-59
2023/03/01 08:44:13;;;;;;;12.93;6.30;;;;;;;;;;5030438;28;20486;-59
2023/03/01 08:46:40;;;;;;;11.27;5.97;;;;;;;;;;5031327;28;20496;-59
2023/03/01 08:49:13;;;;;;;12.18;6.07;;;;;;;;;;5031063;28;20136;-67
2023/03/01 08:51:40;;;;;;;10.60;6.40;;;;;;;;;;5031150;28;20108;-64
2023/03/01 08:54:07;;;;;;;9.90;5.85;;;;;;;;;;5031254;28;20466;-59
2023/03/01 08:56:34;;;;;;;11.50;6.72;;;;;;;;;;5030683;28;20065;-63
2023/03/01 08:59:00;;;;;;;8.68;5.57;;;;;;;;;;5031267;28;20026;-61
2023/03/01 09:01:26;;;;;;;9.45;5.65;;;;;;;;;;5031174;28;20037;-59
2023/03/01 09:03:52;;;;;;;8.57;5.22;;;;;;;;;;5030998;28;20408;-60
2023/03/01 09:06:19;;;;;;;9.40;6.00;;;;;;;;;;5031248;28;20033;-59
2023/03/01 09:08:46;;;;;;;8.52;4.97;;;;;;;;;;5031248;28;20029;-60
2023/03/01 09:11:15;;;;;;;8.52;5.13;;;;;;;;;;5031021;28;20033;-61
2023/03/01 09:13:41;;;;;;;9.00;4.80;;;;;;;;;;5031366;28;20025;-60
2023/03/01 09:16:08;;;;;;;10.07;5.32;;;;;;;;;;5029583;28;20030;-61
2023/03/01 09:18:35;;;;;;;8.75;4.90;;;;;;;;;;5031204;28;20025;-61
2023/03/01 09:21:07;;;;;;;7.00;4.03;;;;;;;;;;5030728;28;20037;-61
2023/03/01 09:23:34;;;;;;;7.15;4.30;;;;;;;;;;5030859;28;20049;-64
2023/03/01 09:26:00;;;;;;;6.75;4.05;;;;;;;;;;5029716;28;20397;-70
2023/03/01 09:28:26;;;;;;;8.32;5.25;;;;;;;;;;5029808;28;20388;-59
2023/03/01 09:30:52;;;;;;;9.43;5.43;;;;;;;;;;5018678;28;20144;-60
2023/03/01 09:33:18;;;;;;;11.63;5.25;;;;;;;;;;5029484;28;20088;-71
2023/03/01 09:35:46;;;;;;;13.40;5.38;;;;;;;;;;5028970;28;20029;-60
2023/03/01 09:38:13;;;;;;;11.63;6.40;;;;;;;;;;5029592;28;20526;-61
2023/03/01 09:40:47;;;;;;;9.95;6.20;;;;;;;;;;5029271;28;20040;-68
2023/03/01 09:43:20;;;;;;;12.98;6.70;;;;;;;;;;5027851;28;20025;-60
2023/03/01 09:45:48;;;;;;;16.73;7.28;;;;;;;;;;5026571;28;20022;-61
2023/03/01 09:48:17;;;;;;;10.98;6.68;;;;;;;;;;5029364;28;20085;-60
2023/03/01 09:50:46;;;;;;;14.95;7.25;;;;;;;;;;5015764;28;20077;-61
2023/03/01 09:53:19;;;;;;;9.60;6.05;;;;;;;;;;5010553;28;20109;-65
2023/03/01 09:55:55;;;;;;;11.40;6.00;;;;;;;;;;5010732;28;20025;-60
2023/03/01 09:58:23;;;;;;;7.43;4.68;;;;;;;;;;5010677;28;20080;-61
2023/03/01 10:00:50;;;;;;;13.23;6.22;;;;;;;;;;5010908;28;20053;-61
2023/03/01 10:03:32;;;;;;;12.60;6.32;;;;;;;;;;5010236;28;20057;-60
2023/03/01 10:06:04;;;;;;;9.45;5.22;;;;;;;;;;5014918;28;20030;-61
2023/03/01 10:08:56;;;;;;;10.63;5.07;;;;;;;;;;5027027;28;20112;-60
2023/03/01 10:11:36;;;;;;;11.43;6.30;;;;;;;;;;5024431;28;20088;-60
2023/03/01 10:14:04;;;;;;;12.35;6.00;;;;;;;;;;5018064;28;20390;-64
2023/03/01 10:16:42;;;;;;;8.95;5.22;;;;;;;;;;5011839;28;20018;-67
2023/03/01 10:19:11;;;;;;;9.25;4.35;;;;;;;;;;5026446;28;20385;-60
2023/03/01 10:21:41;;;;;;;11.30;6.65;;;;;;;;;;5027787;28;20375;-61
2023/03/01 10:24:12;;;;;;;11.85;6.03;;;;;;;;;;5026894;28;20099;-60
2023/03/01 10:26:41;;;;;;;8.00;4.50;;;;;;;;;;5027110;28;20034;-59
2023/03/01 10:29:10;;;;;;;8.00;4.68;;;;;;;;;;5026541;28;20423;-60
2023/03/01 10:31:44;;;;;;;8.73;4.80;;;;;;;;;;5028948;28;20421;-65
2023/03/01 10:34:12;;;;;;;10.45;5.07;;;;;;;;;;5027061;28;20067;-69
2023/03/01 10:36:40;;;;;;;8.73;4.60;;;;;;;;;;5030791;28;20101;-64
2023/03/01 10:39:12;;;;;;;8.85;4.45;;;;;;;;;;5031534;28;20409;-60
2023/03/01 10:41:40;;;;;;;5.90;4.15;;;;;;;;;;5033170;28;20139;-66
2023/03/01 10:44:26;;;;;;;10.23;4.88;;;;;;;;;;5033738;28;20094;-61
2023/03/01 10:47:00;;;;;;;10.63;5.20;;;;;;;;;;5033383;28;20033;-61
2023/03/01 10:49:27;;;;;;;8.38;4.95;;;;;;;;;;5033325;28;20080;-71
2023/03/01 10:51:53;;;;;;;8.27;5.38;;;;;;;;;;5033325;28;20037;-69
2023/03/01 10:54:26;;;;;;;9.32;6.07;;;;;;;;;;5033640;28;20025;-60
2023/03/01 10:56:53;;;;;;;10.73;5.13;;;;;;;;;;5033679;28;20021;-71
2023/03/01 10:59:30;;;;;;;8.57;4.70;;;;;;;;;;5033720;28;20017;-64
2023/03/01 11:02:14;;;;;;;7.63;4.22;;;;;;;;;;5033732;28;20033;-61
2023/03/01 11:04:56;;;;;;;9.60;4.22;;;;;;;;;;5033396;28;20521;-65
2023/03/01 11:07:22;;;;;;;8.52;4.32;;;;;;;;;;5033662;28;20018;-72
2023/03/01 11:09:48;;;;;;;16.55;6.40;;;;;;;;;;5033177;28;20033;-60
2023/03/01 11:12:15;;;;;;;15.27;7.18;;;;;;;;;;5031990;28;20393;-60
2023/03/01 11:14:49;;;;;;;7.55;4.30;;;;;;;;;;5032883;28;20431;-60
2023/03/01 11:17:22;;;;;;;10.05;4.85;;;;;;;;;;5032891;28;20422;-61
2023/03/01 11:20:11;;;;;;;11.60;5.72;;;;;;;;;;5032114;28;20030;-60
2023/03/01 11:22:41;;;;;;;8.98;5.05;;;;;;;;;;4990152;28;20034;-61
2023/03/01 11:25:12;;;;;;;12.00;5.95;;;;;;;;;;4990049;28;20045;-62
2023/03/01 11:27:41;;;;;;;8.43;3.95;;;;;;;;;;4989787;28;20038;-74
2023/03/01 11:30:09;;;;;;;11.48;4.85;;;;;;;;;;4990014;28;20121;-62
2023/03/01 11:32:39;;;;;;;8.93;4.88;;;;;;;;;;4990002;28;20478;-60
2023/03/01 11:35:15;;;;;;;5.72;3.72;;;;;;;;;;4989471;28;20481;-60
2023/03/01 11:37:47;;;;;;;9.23;5.03;;;;;;;;;;4987895;28;20038;-70
2023/03/01 11:40:15;;;;;;;16.30;4.88;;;;;;;;;;4989504;28;20069;-62
2023/03/01 11:42:44;;;;;;;8.68;5.18;;;;;;;;;;4989451;28;20089;-61
2023/03/01 11:45:11;;;;;;;8.48;4.95;;;;;;;;;;4989908;28;20482;-60
2023/03/01 11:47:40;;;;;;;8.57;4.85;;;;;;;;;;4989461;28;20831;-62
2023/03/01 11:50:09;;;;;;;11.35;4.20;;;;;;;;;;4989604;28;20054;-71
2023/03/01 11:52:49;;;;;;;6.38;4.18;;;;;;;;;;4989496;28;20049;-64
2023/03/01 11:55:23;;;;;;;8.00;4.22;;;;;;;;;;4989998;28;20030;-61
2023/03/01 11:58:12;;;;;;;9.23;4.28;;;;;;;;;;4990126;28;20038;-60
2023/03/01 12:00:45;;;;;;;5.75;4.13;;;;;;;;;;5029262;28;20145;-61
2023/03/01 12:03:29;;;;;;;8.32;4.70;;;;;;;;;;5032149;28;20418;-75
2023/03/01 12:06:03;;;;;;;13.80;6.50;;;;;;;;;;5031855;28;20476;-61
2023/03/01 12:08:54;;;;;;;13.25;5.75;;;;;;;;;;5032267;28;20420;-60
2023/03/01 12:11:28;;;;;;;11.05;5.68;;;;;;;;;;5031983;28;20041;-60
2023/03/01 12:14:33;;;;;;;9.07;5.07;;;;;;;;;;5032097;28;20079;-61
2023/03/01 12:17:05;;;;;;;10.38;5.68;;;;;;;;;;5009817;28;20030;-60
2023/03/01 12:19:37;;;;;;;9.68;5.38;;;;;;;;;;5009946;28;20033;-60
2023/03/01 12:22:18;;;;;;;11.55;5.32;;;;;;;;;;5009914;28;20054;-59
2023/03/01 12:24:46;;;;;;;10.98;6.20;;;;;;;;;;5009854;28;20393;-61
2023/03/01 12:27:12;;;;;;;12.80;5.72;;;;;;;;;;5009361;28;20030;-60
2023/03/01 12:29:46;;;;;;;8.15;5.00;;;;;;;;;;5009745;28;20038;-60
2023/03/01 12:32:30;;;;;;;10.20;6.07;;;;;;;;;;5009757;28;20509;-59
2023/03/01 12:35:04;;;;;;;8.82;5.78;;;;;;;;;;5009453;28;20045;-59
2023/03/01 12:37:36;;;;;;;11.23;6.05;;;;;;;;;;5009388;28;20073;-62
2023/03/01 12:40:21;;;;;;;9.57;5.10;;;;;;;;;;5009375;28;21021;-62
2023/03/01 12:42:52;;;;;;;15.55;5.82;;;;;;;;;;5009111;28;20433;-60
2023/03/01 12:45:21;;;;;;;9.15;5.47;;;;;;;;;;5009045;28;20528;-60
2023/03/01 12:47:47;;;;;;;9.27;5.45;;;;;;;;;;5020671;28;20045;-64
2023/03/01 12:50:17;;;;;;;12.60;5.72;;;;;;;;;;5030814;28;20096;-60
2023/03/01 12:52:55;;;;;;;11.02;5.18;;;;;;;;;;5030512;28;20033;-65
2023/03/01 12:55:21;;;;;;;11.02;6.20;;;;;;;;;;5027676;28;20076;-61
2023/03/01 12:57:54;;;;;;;10.38;6.22;;;;;;;;;;5029407;28;20037;-76
2023/03/01 13:00:31;;;;;;;13.20;5.93;;;;;;;;;;5027349;28;20543;-64
2023/03/01 13:03:23;;;;;;;12.20;5.57;;;;;;;;;;5027686;28;20024;-61
2023/03/01 13:05:52;;;;;;;12.20;6.22;;;;;;;;;;5013150;28;20043;-67
2023/03/01 13:08:28;;;;;;;11.25;5.88;;;;;;;;;;5027660;28;20018;-62
2023/03/01 13:10:59;;;;;;;12.68;6.53;;;;;;;;;;5028635;28;20563;-63
2023/03/01 13:13:26;;;;;;;18.98;8.93;;;;;;;;;;5018657;28;20033;-80
2023/03/01 13:15:52;;;;;;;11.93;7.03;;;;;;;;;;5031021;28;20538;-77
2023/03/01 13:18:27;;;;;;;32.90;13.45;;;;;;;;;;5029246;28;20487;-82
2023/03/01 13:20:57;;;;;;;15.82;8.35;;;;;;;;;;5030767;28;20032;-62
2023/03/01 13:23:23;;;;;;;24.00;12.00;;;;;;;;;;5030361;28;20484;-60
2023/03/01 13:26:01;;;;;;;14.85;7.72;;;;;;;;;;5030164;28;20487;-77
2023/03/01 13:28:48;;;;;;;19.00;9.50;;;;;;;;;;5030787;28;20431;-65
2023/03/01 13:31:18;;;;;;;16.88;8.50;;;;;;;;;;5030063;28;20041;-73
2023/03/01 13:33:48;;;;;;;16.58;7.93;;;;;;;;;;5030918;28;20034;-73
2023/03/01 13:36:30;;;;;;;17.83;9.07;;;;;;;;;;5010120;28;20088;-63
2023/03/01 13:38:59;;;;;;;;;;;;;;;;;;5011178;28;20478;-59
2023/03/01 13:41:43;;;;;;;14.90;7.00;;;;;;;;;;5010870;28;19905;-78
2023/03/01 13:44:13;;;;;;;11.20;6.82;;;;;;;;;;5010956;28;20065;-59
2023/03/01 13:46:40;;;;;;;12.63;7.15;;;;;;;;;;5010358;28;20034;-59
2023/03/01 13:49:12;;;;;;;12.48;7.85;;;;;;;;;;5022130;28;20512;-74
2023/03/01 13:51:38;;;;;;;16.20;7.57;;;;;;;;;;5025720;28;20489;-60
2023/03/01 13:54:04;;;;;;;13.32;7.18;;;;;;;;;;5030178;28;20022;-59
2023/03/01 13:56:36;;;;;;;12.27;7.47;;;;;;;;;;5030265;28;20029;-60
2023/03/01 13:59:05;;;;;;;13.80;7.38;;;;;;;;;;5030467;28;20533;-76
2023/03/01 14:01:32;;;;;;;15.57;7.40;;;;;;;;;;5029903;28;20025;-68
2023/03/01 14:03:59;;;;;;;14.98;8.38;;;;;;;;;;5030228;28;20018;-71
2023/03/01 14:06:26;;;;;;;11.55;7.75;;;;;;;;;;5029850;28;20029;-61
2023/03/01 14:09:12;;;;;;;13.98;7.93;;;;;;;;;;5030110;28;20033;-76
2023/03/01 14:11:38;;;;;;;17.17;8.35;;;;;;;;;;5024896;28;20045;-84
2023/03/01 14:14:14;;;;;;;13.52;7.63;;;;;;;;;;5033942;28;20083;-66
2023/03/01 14:16:43;;;;;;;14.10;8.40;;;;;;;;;;5033106;28;20154;-66
2023/03/01 14:19:21;;;;;;;14.10;8.05;;;;;;;;;;5033609;28;20120;-79
2023/03/01 14:21:48;;;;;;;16.33;8.20;;;;;;;;;;5034555;28;20338;-75
2023/03/01 14:24:23;;;;;;;15.50;7.95;;;;;;;;;;5033790;28;20026;-60
2023/03/01 14:26:50;;;;;;;17.02;9.43;;;;;;;;;;5034066;28;20017;-75
2023/03/01 14:29:35;;;;;;;15.32;8.35;;;;;;;;;;5033325;28;20033;-64
2023/03/01 14:32:33;;;;;;;14.45;8.23;;;;;;;;;;5033828;28;20029;-58
2023/03/01 14:35:00;;;;;;;16.17;8.85;;;;;;;;;;4992083;28;20034;-68
2023/03/01 14:37:28;;;;;;;18.77;9.13;;;;;;;;;;4991836;28;20473;-60
2023/03/01 14:39:55;;;;;;;14.07;8.45;;;;;;;;;;4991614;28;20081;-62
2023/03/01 14:42:23;;;;;;;13.57;7.82;;;;;;;;;;4992053;28;20045;-64
2023/03/01 14:44:50;;;;;;;14.13;8.05;;;;;;;;;;4992013;28;20049;-60
2023/03/01 14:47:22;;;;;;;14.95;8.45;;;;;;;;;;4991429;28;20140;-60
2023/03/01 14:49:50;;;;;;;16.42;9.25;;;;;;;;;;4991328;28;20058;-80
2023/03/01 14:52:23;;;;;;;16.08;9.23;;;;;;;;;;4991516;28;20085;-74
2023/03/01 14:54:50;;;;;;;18.75;9.77;;;;;;;;;;4991516;28;20034;-61
2023/03/01 14:57:18;;;;;;;15.77;8.98;;;;;;;;;;4991585;28;20038;-71
2023/03/01 14:59:44;;;;;;;17.05;7.88;;;;;;;;;;4991453;28;20023;-59
2023/03/01 15:02:19;;;;;;;14.70;7.28;;;;;;;;;;4991187;28;20541;-81
2023/03/01 15:04:50;;;;;;;19.73;9.40;;;;;;;;;;4991010;28;20042;-60
2023/03/01 15:07:16;;;;;;;18.13;9.63;;;;;;;;;;4991137;28;20085;-60
2023/03/01 15:09:42;;;;;;;17.52;9.32;;;;;;;;;;4997626;28;20119;-61
2023/03/01 15:12:27;;;;;;;20.13;10.27;;;;;;;;;;5032905;28;20025;-71
2023/03/01 15:14:53;;;;;;;21.25;11.90;;;;;;;;;;5033180;28;20044;-63
2023/03/01 15:17:38;;;;;;;16.80;9.55;;;;;;;;;;5033193;28;20038;-58
2023/03/01 15:20:14;;;;;;;20.92;11.15;;;;;;;;;;5033176;28;20114;-74
2023/03/01 15:22:48;;;;;;;21.88;10.32;;;;;;;;;;5032354;28;20030;-60
2023/03/01 15:25:21;;;;;;;25.08;11.52;;;;;;;;;;5032584;28;20037;-62
2023/03/01 15:27:49;;;;;;;19.58;10.05;;;;;;;;;;5030003;28;20029;-61
2023/03/01 15:30:19;;;;;;;16.95;9.60;;;;;;;;;;5031649;28;20141;-61
2023/03/01 15:32:45;;;;;;;18.98;10.27;;;;;;;;;;5029827;28;20021;-66
2023/03/01 15:35:30;;;;;;;26.00;12.15;;;;;;;;;;5031465;28;20032;-61
2023/03/01 15:38:00;;;;;;;17.65;9.68;;;;;;;;;;5030162;28;20030;-57
2023/03/01 15:40:31;;;;;;;18.02;10.45;;;;;;;;;;5029696;28;20024;-59
2023/03/01 15:43:04;;;;;;;17.90;10.25;;;;;;;;;;5031609;28;20029;-60
2023/03/01 15:45:33;;;;;;;22.45;10.82;;;;;;;;;;5032135;28;20075;-61
2023/03/01 15:48:03;;;;;;;19.08;9.35;;;;;;;;;;5032603;28;20017;-60
2023/03/01 15:50:33;;;;;;;17.38;9.68;;;;;;;;;;5031945;28;20095;-62
2023/03/01 15:53:00;;;;;;;19.27;9.95;;;;;;;;;;5032974;28;20040;-58
2023/03/01 15:55:30;;;;;;;21.27;11.10;;;;;;;;;;5032517;28;20159;-67
2023/03/01 15:58:16;;;;;;;18.52;10.63;;;;;;;;;;5032691;28;20563;-61
2023/03/01 16:00:42;;;;;;;24.00;11.30;;;;;;;;;;5032400;28;20108;-62
2023/03/01 16:03:11;;;;;;;20.35;10.93;;;;;;;;;;5032564;28;20033;-61
2023/03/01 16:05:37;;;;;;;24.10;12.50;;;;;;;;;;5032269;28;20026;-60
2023/03/01 16:08:05;;;;;;;24.45;12.20;;;;;;;;;;5032336;28;20116;-62
2023/03/01 16:10:32;;;;;;;21.40;11.93;;;;;;;;;;5031858;28;20029;-66
2023/03/01 16:12:58;;;;;;;24.17;12.63;;;;;;;;;;5032144;28;20030;-61
2023/03/01 16:15:27;;;;;;;26.88;12.27;;;;;;;;;;5032022;28;20414;-60
2023/03/01 16:17:53;;;;;;;22.50;11.95;;;;;;;;;;5031911;28;20029;-63
2023/03/01 16:20:19;;;;;;;24.67;13.43;;;;;;;;;;5031396;28;20037;-70
2023/03/01 16:22:46;;;;;;;26.92;13.15;;;;;;;;;;5031911;28;20025;-62
2023/03/01 16:25:13;;;;;;;22.33;12.20;;;;;;;;;;5032149;28;20048;-62
2023/03/01 16:27:39;;;;;;;24.38;13.43;;;;;;;;;;5031553;28;20029;-65
2023/03/01 16:30:06;;;;;;;26.48;14.00;;;;;;;;;;5031261;28;20489;-64
2023/03/01 16:32:32;;;;;;;27.85;14.63;;;;;;;;;;5031422;28;20017;-73
2023/03/01 16:34:58;;;;;;;24.65;13.13;;;;;;;;;;5030312;28;20507;-68
2023/03/01 16:37:24;;;;;;;26.98;12.48;;;;;;;;;;5031466;28;20321;-65
2023/03/01 16:39:50;;;;;;;29.77;13.85;;;;;;;;;;5031605;28;20467;-61
2023/03/01 16:42:18;;;;;;;25.85;12.73;;;;;;;;;;5031416;28;20120;-72
2023/03/01 16:44:44;;;;;;;28.83;12.63;;;;;;;;;;5031467;28;20469;-61
2023/03/01 16:47:10;;;;;;;26.17;13.35;;;;;;;;;;5031126;28;20507;-71
2023/03/01 16:49:36;;;;;;;27.85;13.38;;;;;;;;;;5030848;28;20107;-61
2023/03/01 16:52:02;;;;;;;24.63;13.40;;;;;;;;;;5031339;28;20026;-60
2023/03/01 16:54:28;;;;;;;25.80;14.05;;;;;;;;;;5031383;28;20072;-63
2023/03/01 16:56:54;;;;;;;24.95;13.63;;;;;;;;;;5030664;28;20033;-64
2023/03/01 16:59:20;;;;;;;24.75;13.25;;;;;;;;;;5031050;28;20021;-60
2023/03/01 17:01:47;;;;;;;25.63;13.30;;;;;;;;;;5030958;28;20013;-66
2023/03/01 17:04:13;;;;;;;28.70;14.95;;;;;;;;;;5030993;28;20037;-62
2023/03/01 17:06:39;;;;;;;32.65;15.18;;;;;;;;;;5030642;28;20540;-65
2023/03/01 17:09:05;;;;;;;28.85;15.80;;;;;;;;;;5031113;28;20029;-61
2023/03/01 17:11:31;;;;;;;30.38;15.32;;;;;;;;;;5031189;28;20057;-68
2023/03/01 17:13:57;;;;;;;29.67;15.13;;;;;;;;;;5030760;28;20025;-61
2023/03/01 17:16:23;;;;;;;25.98;14.65;;;;;;;;;;5030834;28;20037;-61
2023/03/01 17:18:50;;;;;;;31.48;16.10;;;;;;;;;;5020718;28;20025;-64
2023/03/01 17:21:16;;;;;;;29.63;15.02;;;;;;;;;;5021400;28;20037;-64
2023/03/01 17:23:43;;;;;;;33.42;15.88;;;;;;;;;;5027278;28;20045;-61
2023/03/01 17:26:09;;;;;;;30.63;15.18;;;;;;;;;;5037814;28;20025;-64
2023/03/01 17:28:36;;;;;;;34.65;16.77;;;;;;;;;;5029780;28;20033;-61
2023/03/01 17:31:03;;;;;;;35.80;17.90;;;;;;;;;;5044289;28;20048;-60
2023/03/01 17:33:29;;;;;;;38.58;17.80;;;;;;;;;;5034308;28;20045;-59
2023/03/01 17:35:56;;;;;;;34.42;17.90;;;;;;;;;;5036455;28;20472;-61
2023/03/01 17:38:22;;;;;;;36.83;18.73;;;;;;;;;;5032057;28;20591;-60
2023/03/01 17:40:48;;;;;;;33.53;17.67;;;;;;;;;;5032137;28;20116;-63
2023/03/01 17:43:16;;;;;;;35.90;17.83;;;;;;;;;;5028330;28;20087;-58
2023/03/01 17:45:46;;;;;;;35.78;18.33;;;;;;;;;;5028348;28;20026;-59
2023/03/01 17:48:12;;;;;;;34.90;16.60;;;;;;;;;;5032550;28;20021;-62
2023/03/01 17:50:42;;;;;;;35.17;18.40;;;;;;;;;;5031719;28;20457;-60
2023/03/01 17:53:08;;;;;;;30.98;16.23;;;;;;;;;;5031498;28;20159;-60
2023/03/01 17:55:39;;;;;;;39.08;17.95;;;;;;;;;;5034915;28;20538;-68
2023/03/01 17:58:05;;;;;;;40.20;19.17;;;;;;;;;;5032223;28;20108;-65
2023/03/01 18:00:32;;;;;;;30.85;16.30;;;;;;;;;;5028269;28;20104;-67
2023/03/01 18:02:58;;;;;;;35.40;17.13;;;;;;;;;;5030123;28;20029;-60
2023/03/01 18:05:24;;;;;;;36.83;18.52;;;;;;;;;;5026285;28;20043;-67
2023/03/01 18:07:51;;;;;;;30.48;16.52;;;;;;;;;;5010370;28;20029;-65
2023/03/01 18:10:17;;;;;;;28.70;16.88;;;;;;;;;;5010165;28;20033;-61
2023/03/01 18:12:44;;;;;;;32.25;16.40;;;;;;;;;;5013269;28;20509;-61
2023/03/01 18:15:10;;;;;;;31.40;17.13;;;;;;;;;;5028837;28;20075;-61
2023/03/01 18:17:36;;;;;;;32.40;16.88;;;;;;;;;;5028745;28;20087;-66
2023/03/01 18:20:03;;;;;;;33.22;17.30;;;;;;;;;;5028394;28;20115;-60
2023/03/01 18:22:29;;;;;;;28.70;15.52;;;;;;;;;;5028936;28;20372;-64
2023/03/01 18:24:55;;;;;;;31.30;16.73;;;;;;;;;;5029241;28;20030;-61
2023/03/01 18:27:21;;;;;;;32.78;15.90;;;;;;;;;;5028538;28;20108;-62
2023/03/01 18:29:47;;;;;;;28.55;15.68;;;;;;;;;;5028746;28;20038;-61
2023/03/01 18:32:13;;;;;;;30.35;16.52;;;;;;;;;;5029863;28;20030;-61
2023/03/01 18:34:39;;;;;;;27.85;15.63;;;;;;;;;;5029791;28;20029;-61
2023/03/01 18:37:05;;;;;;;34.45;17.35;;;;;;;;;;5029630;28;20028;-70
2023/03/01 18:39:31;;;;;;;31.00;16.85;;;;;;;;;;5030079;28;20026;-75
2023/03/01 18:41:57;;;;;;;28.45;16.08;;;;;;;;;;5029893;28;20461;-63
2023/03/01 18:44:23;;;;;;;29.88;16.90;;;;;;;;;;5029936;28;20029;-60
2023/03/01 18:46:49;;;;;;;28.27;15.77;;;;;;;;;;5030072;28;20029;-61
2023/03/01 18:49:16;;;;;;;28.98;15.68;;;;;;;;;;5029612;28;20049;-70
2023/03/01 18:51:42;;;;;;;30.08;16.98;;;;;;;;;;5029514;28;20030;-62
2023/03/01 18:54:10;;;;;;;30.33;16.58;;;;;;;;;;5029692;28;20022;-60
2023/03/01 18:56:36;;;;;;;30.38;16.63;;;;;;;;;;5030289;28;20029;-71
2023/03/01 18:59:03;;;;;;;32.28;16.70;;;;;;;;;;5033229;28;20028;-60
2023/03/01 19:01:31;;;;;;;30.23;16.77;;;;;;;;;;5032601;28;20076;-76
2023/03/01 19:03:57;;;;;;;33.08;17.15;;;;;;;;;;5033072;28;20474;-65
2023/03/01 19:06:23;;;;;;;37.45;16.77;;;;;;;;;;5033102;28;20044;-60
2023/03/01 19:08:52;;;;;;;30.13;16.02;;;;;;;;;;5033328;28;20052;-62
2023/03/01 19:11:18;;;;;;;32.05;16.65;;;;;;;;;;5033218;28;20137;-64
2023/03/01 19:13:44;;;;;;;30.13;16.73;;;;;;;;;;5024796;28;20109;-62
2023/03/01 19:16:15;;;;;;;29.00;16.20;;;;;;;;;;5031532;28;20063;-60
2023/03/01 19:18:42;;;;;;;32.33;17.52;;;;;;;;;;5030309;28;20586;-60
2023/03/01 19:21:09;;;;;;;28.35;17.02;;;;;;;;;;5031365;28;20072;-62
2023/03/01 19:23:37;;;;;;;30.10;16.63;;;;;;;;;;5031088;28;20013;-60
2023/03/01 19:26:07;;;;;;;29.00;16.33;;;;;;;;;;5031357;28;20059;-60
2023/03/01 19:28:34;;;;;;;26.67;15.00;;;;;;;;;;5028020;28;20481;-61
2023/03/01 19:31:03;;;;;;;27.45;15.68;;;;;;;;;;5029984;28;20051;-63
2023/03/01 19:33:30;;;;;;;28.80;15.75;;;;;;;;;;5031256;28;20503;-63
2023/03/01 19:35:56;;;;;;;29.05;15.50;;;;;;;;;;5031079;28;20017;-64
2023/03/01 19:38:22;;;;;;;25.83;15.45;;;;;;;;;;5030827;28;20022;-69
2023/03/01 19:40:48;;;;;;;30.33;16.90;;;;;;;;;;5031278;28;20532;-60
2023/03/01 19:43:14;;;;;;;30.65;17.10;;;;;;;;;;5030959;28;20017;-59
2023/03/01 19:45:40;;;;;;;29.80;16.02;;;;;;;;;;5031792;28;20052;-65
2023/03/01 19:48:06;;;;;;;27.20;15.82;;;;;;;;;;5029960;28;20036;-61
2023/03/01 19:50:32;;;;;;;28.27;16.55;;;;;;;;;;5030658;28;20050;-65
2023/03/01 19:52:58;;;;;;;26.70;15.57;;;;;;;;;;5030895;28;20051;-61
2023/03/01 19:55:24;;;;;;;26.30;14.63;;;;;;;;;;5021970;28;20034;-58
2023/03/01 19:57:50;;;;;;;27.30;14.93;;;;;;;;;;5023180;28;20041;-69
2023/03/01 20:00:17;;;;;;;29.65;16.63;;;;;;;;;;5059169;28;20117;-62
2023/03/01 20:02:43;;;;;;;27.50;15.68;;;;;;;;;;5031709;28;20464;-62
2023/03/01 20:05:09;;;;;;;26.08;14.95;;;;;;;;;;5030831;28;20022;-77
2023/03/01 20:07:35;;;;;;;27.65;15.02;;;;;;;;;;5020464;28;20014;-61
2023/03/01 20:10:02;;;;;;;28.90;15.65;;;;;;;;;;5021590;28;20048;-64
2023/03/01 20:12:28;;;;;;;27.42;15.75;;;;;;;;;;5013951;28;20025;-60
2023/03/01 20:14:55;;;;;;;26.77;14.18;;;;;;;;;;5012729;28;20022;-63
2023/03/01 20:17:22;;;;;;;24.73;14.27;;;;;;;;;;5012823;28;20018;-70
2023/03/01 20:19:48;;;;;;;26.35;14.30;;;;;;;;;;5011978;28;20033;-59
2023/03/01 20:22:14;;;;;;;28.25;15.82;;;;;;;;;;5011598;28;20045;-60
2023/03/01 20:24:41;;;;;;;24.45;13.68;;;;;;;;;;5030800;28;20033;-72
2023/03/01 20:27:07;;;;;;;28.48;14.50;;;;;;;;;;5030512;28;20100;-60